sensor_id;sensor_type;location;lat;lon;timestamp;pressure;altitude;pressure_sealevel;temperature;humidity
28131;BME280;15418;42.634;23.374;2022-08-27T00:01:24;93937.81;;;18.13;100.00
28131;BME280;15418;42.634;23.374;2022-08-27T00:03:52;93957.53;;;18.07;100.00
28131;BME280;15418;42.634;23.374;2022-08-27T00:06:19;93914.09;;;17.75;100.00
28131;BME280;15418;42.634;23.374;2022-08-27T00:08:45;93954.13;;;18.10;100.00
28131;BME280;15418;42.634;23.374;2022-08-27T00:11:12;93951.19;;;17.94;100.00
28131;BME280;15418;42.634;23.374;2022-08-27T00:13:38;93991.72;;;18.09;100.00
28131;BME280;15418;42.634;23.374;2022-08-27T00:16:07;93969.50;;;18.02;100.00
28131;BME280;15418;42.634;23.374;2022-08-27T00:18:34;93957.19;;;18.08;100.00
28131;BME280;15418;42.634;23.374;2022-08-27T00:21:00;93951.72;;;18.08;100.00
28131;BME280;15418;42.634;23.374;2022-08-27T00:23:26;93971.00;;;18.21;100.00
28131;BME280;15418;42.634;23.374;2022-08-27T00:25:51;93960.88;;;18.12;100.00
28131;BME280;15418;42.634;23.374;2022-08-27T00:28:17;93899.81;;;17.82;100.00
28131;BME280;15418;42.634;23.374;2022-08-27T00:30:42;93897.09;;;17.82;100.00
28131;BME280;15418;42.634;23.374;2022-08-27T00:33:08;93952.63;;;18.33;100.00
28131;BME280;15418;42.634;23.374;2022-08-27T00:35:33;93934.03;;;18.18;100.00
28131;BME280;15418;42.634;23.374;2022-08-27T00:37:59;93964.88;;;18.36;100.00
28131;BME280;15418;42.634;23.374;2022-08-27T00:40:25;93950.72;;;18.13;100.00
28131;BME280;15418;42.634;23.374;2022-08-27T00:42:52;93912.69;;;17.69;100.00
28131;BME280;15418;42.634;23.374;2022-08-27T00:45:20;93966.66;;;17.90;100.00
28131;BME280;15418;42.634;23.374;2022-08-27T00:47:53;93978.97;;;17.83;100.00
28131;BME280;15418;42.634;23.374;2022-08-27T00:50:27;93973.34;;;17.80;100.00
28131;BME280;15418;42.634;23.374;2022-08-27T00:52:59;93973.25;;;17.76;100.00
28131;BME280;15418;42.634;23.374;2022-08-27T00:55:29;93968.81;;;17.84;100.00
28131;BME280;15418;42.634;23.374;2022-08-27T00:58:17;93964.13;;;17.84;100.00
28131;BME280;15418;42.634;23.374;2022-08-27T01:00:44;93969.03;;;17.79;100.00
28131;BME280;15418;42.634;23.374;2022-08-27T01:03:11;93972.09;;;17.77;100.00
28131;BME280;15418;42.634;23.374;2022-08-27T01:05:37;93927.50;;;17.47;100.00
28131;BME280;15418;42.634;23.374;2022-08-27T01:08:10;93965.59;;;17.82;100.00
28131;BME280;15418;42.634;23.374;2022-08-27T01:10:38;93963.59;;;17.70;100.00
28131;BME280;15418;42.634;23.374;2022-08-27T01:13:09;93964.69;;;17.78;100.00
28131;BME280;15418;42.634;23.374;2022-08-27T01:15:35;93956.38;;;17.65;100.00
28131;BME280;15418;42.634;23.374;2022-08-27T01:18:05;93949.03;;;17.57;100.00
28131;BME280;15418;42.634;23.374;2022-08-27T01:20:44;93927.38;;;17.43;100.00
28131;BME280;15418;42.634;23.374;2022-08-27T01:23:41;93961.94;;;17.57;100.00
28131;BME280;15418;42.634;23.374;2022-08-27T01:26:08;93959.84;;;17.53;100.00
28131;BME280;15418;42.634;23.374;2022-08-27T01:28:37;93945.91;;;17.38;100.00
28131;BME280;15418;42.634;23.374;2022-08-27T01:31:05;93963.72;;;17.52;100.00
28131;BME280;15418;42.634;23.374;2022-08-27T01:33:31;93951.56;;;17.62;100.00
28131;BME280;15418;42.634;23.374;2022-08-27T01:35:57;93965.13;;;17.59;100.00
28131;BME280;15418;42.634;23.374;2022-08-27T01:38:22;93958.38;;;17.56;100.00
28131;BME280;15418;42.634;23.374;2022-08-27T01:40:49;93966.66;;;17.68;100.00
28131;BME280;15418;42.634;23.374;2022-08-27T01:43:17;93939.38;;;17.51;100.00
28131;BME280;15418;42.634;23.374;2022-08-27T01:45:46;93945.66;;;17.51;100.00
28131;BME280;15418;42.634;23.374;2022-08-27T01:48:13;93969.00;;;17.28;100.00
28131;BME280;15418;42.634;23.374;2022-08-27T01:50:40;93975.81;;;17.22;100.00
28131;BME280;15418;42.634;23.374;2022-08-27T01:53:26;93977.66;;;17.09;100.00
28131;BME280;15418;42.634;23.374;2022-08-27T01:55:53;93954.03;;;16.86;100.00
28131;BME280;15418;42.634;23.374;2022-08-27T01:58:21;93959.50;;;16.86;100.00
28131;BME280;15418;42.634;23.374;2022-08-27T02:00:49;93936.09;;;16.68;100.00
28131;BME280;15418;42.634;23.374;2022-08-27T02:03:16;93966.56;;;16.87;100.00
28131;BME280;15418;42.634;23.374;2022-08-27T02:05:44;93943.81;;;16.66;100.00
28131;BME280;15418;42.634;23.374;2022-08-27T02:08:10;93875.09;;;16.11;100.00
28131;BME280;15418;42.634;23.374;2022-08-27T02:10:38;93942.97;;;16.65;100.00
28131;BME280;15418;42.634;23.374;2022-08-27T02:13:04;93957.31;;;16.71;100.00
28131;BME280;15418;42.634;23.374;2022-08-27T02:15:32;93969.19;;;16.75;100.00
28131;BME280;15418;42.634;23.374;2022-08-27T02:17:59;93979.81;;;16.77;100.00
28131;BME280;15418;42.634;23.374;2022-08-27T02:20:25;93968.09;;;16.67;100.00
28131;BME280;15418;42.634;23.374;2022-08-27T02:22:51;93960.53;;;16.55;100.00
28131;BME280;15418;42.634;23.374;2022-08-27T02:25:17;93974.72;;;16.58;100.00
28131;BME280;15418;42.634;23.374;2022-08-27T02:27:46;93978.13;;;16.54;100.00
28131;BME280;15418;42.634;23.374;2022-08-27T02:30:15;93984.88;;;16.57;100.00
28131;BME280;15418;42.634;23.374;2022-08-27T02:32:42;93976.53;;;16.36;100.00
28131;BME280;15418;42.634;23.374;2022-08-27T02:35:15;93992.44;;;16.51;100.00
28131;BME280;15418;42.634;23.374;2022-08-27T02:37:42;93959.66;;;16.34;100.00
28131;BME280;15418;42.634;23.374;2022-08-27T02:40:12;94002.06;;;16.58;100.00
28131;BME280;15418;42.634;23.374;2022-08-27T02:42:40;93982.00;;;16.45;100.00
28131;BME280;15418;42.634;23.374;2022-08-27T02:45:06;93980.84;;;16.54;100.00
28131;BME280;15418;42.634;23.374;2022-08-27T02:47:33;93993.06;;;16.57;100.00
28131;BME280;15418;42.634;23.374;2022-08-27T02:49:58;94002.72;;;16.54;100.00
28131;BME280;15418;42.634;23.374;2022-08-27T02:52:26;93993.88;;;16.49;100.00
28131;BME280;15418;42.634;23.374;2022-08-27T02:54:52;93969.75;;;16.33;100.00
28131;BME280;15418;42.634;23.374;2022-08-27T02:57:18;93996.94;;;16.47;100.00
28131;BME280;15418;42.634;23.374;2022-08-27T02:59:43;94012.22;;;16.57;100.00
28131;BME280;15418;42.634;23.374;2022-08-27T03:02:09;93995.34;;;16.46;100.00
28131;BME280;15418;42.634;23.374;2022-08-27T03:04:35;93958.06;;;16.24;100.00
28131;BME280;15418;42.634;23.374;2022-08-27T03:07:01;93969.63;;;16.30;100.00
28131;BME280;15418;42.634;23.374;2022-08-27T03:09:26;94010.94;;;16.54;100.00
28131;BME280;15418;42.634;23.374;2022-08-27T03:11:52;93971.38;;;16.26;100.00
28131;BME280;15418;42.634;23.374;2022-08-27T03:14:17;93966.28;;;16.15;100.00
28131;BME280;15418;42.634;23.374;2022-08-27T03:16:43;93984.56;;;16.41;100.00
28131;BME280;15418;42.634;23.374;2022-08-27T03:19:09;94015.25;;;16.55;100.00
28131;BME280;15418;42.634;23.374;2022-08-27T03:21:34;94002.25;;;16.52;100.00
28131;BME280;15418;42.634;23.374;2022-08-27T03:24:01;93979.28;;;16.18;100.00
28131;BME280;15418;42.634;23.374;2022-08-27T03:26:28;93987.47;;;16.27;100.00
28131;BME280;15418;42.634;23.374;2022-08-27T03:28:54;94034.56;;;16.50;100.00
28131;BME280;15418;42.634;23.374;2022-08-27T03:31:21;93977.84;;;16.12;100.00
28131;BME280;15418;42.634;23.374;2022-08-27T03:34:02;94033.47;;;16.43;100.00
28131;BME280;15418;42.634;23.374;2022-08-27T03:36:29;94030.25;;;16.58;100.00
28131;BME280;15418;42.634;23.374;2022-08-27T03:38:55;94005.66;;;16.32;100.00
28131;BME280;15418;42.634;23.374;2022-08-27T03:41:22;94014.50;;;16.37;100.00
28131;BME280;15418;42.634;23.374;2022-08-27T03:43:49;94025.09;;;16.48;100.00
28131;BME280;15418;42.634;23.374;2022-08-27T03:46:18;94033.78;;;16.59;100.00
28131;BME280;15418;42.634;23.374;2022-08-27T03:48:44;94028.94;;;16.73;100.00
28131;BME280;15418;42.634;23.374;2022-08-27T03:51:12;93998.41;;;16.45;100.00
28131;BME280;15418;42.634;23.374;2022-08-27T03:53:41;94022.50;;;16.51;100.00
28131;BME280;15418;42.634;23.374;2022-08-27T03:56:08;94027.50;;;16.67;100.00
28131;BME280;15418;42.634;23.374;2022-08-27T03:58:35;94025.56;;;16.59;100.00
28131;BME280;15418;42.634;23.374;2022-08-27T04:01:01;94023.13;;;16.66;100.00
28131;BME280;15418;42.634;23.374;2022-08-27T04:03:27;94032.66;;;16.60;100.00
28131;BME280;15418;42.634;23.374;2022-08-27T04:05:56;94033.78;;;16.59;100.00
28131;BME280;15418;42.634;23.374;2022-08-27T04:08:23;94038.13;;;16.51;100.00
28131;BME280;15418;42.634;23.374;2022-08-27T04:10:49;94035.41;;;16.42;100.00
28131;BME280;15418;42.634;23.374;2022-08-27T04:13:15;93971.88;;;16.01;100.00
28131;BME280;15418;42.634;23.374;2022-08-27T04:15:46;93974.63;;;16.01;100.00
28131;BME280;15418;42.634;23.374;2022-08-27T04:18:12;94041.66;;;16.51;100.00
28131;BME280;15418;42.634;23.374;2022-08-27T04:20:50;94024.94;;;16.44;100.00
28131;BME280;15418;42.634;23.374;2022-08-27T04:23:17;93996.00;;;16.26;100.00
28131;BME280;15418;42.634;23.374;2022-08-27T04:25:43;94035.56;;;16.54;100.00
28131;BME280;15418;42.634;23.374;2022-08-27T04:28:10;94049.84;;;16.69;100.00
28131;BME280;15418;42.634;23.374;2022-08-27T04:30:44;94040.97;;;16.81;100.00
28131;BME280;15418;42.634;23.374;2022-08-27T04:33:10;94033.94;;;16.53;100.00
28131;BME280;15418;42.634;23.374;2022-08-27T04:35:36;93992.25;;;16.56;100.00
28131;BME280;15418;42.634;23.374;2022-08-27T04:38:02;94001.56;;;16.73;100.00
28131;BME280;15418;42.634;23.374;2022-08-27T04:40:28;93970.59;;;16.25;100.00
28131;BME280;15418;42.634;23.374;2022-08-27T04:43:14;93960.78;;;16.24;100.00
28131;BME280;15418;42.634;23.374;2022-08-27T04:45:44;94005.41;;;16.81;100.00
28131;BME280;15418;42.634;23.374;2022-08-27T04:48:11;94044.59;;;17.20;100.00
28131;BME280;15418;42.634;23.374;2022-08-27T04:50:41;94024.50;;;17.07;100.00
28131;BME280;15418;42.634;23.374;2022-08-27T04:53:08;94048.31;;;17.15;100.00
28131;BME280;15418;42.634;23.374;2022-08-27T04:55:43;93997.50;;;16.97;100.00
28131;BME280;15418;42.634;23.374;2022-08-27T04:58:10;94057.94;;;17.22;100.00
28131;BME280;15418;42.634;23.374;2022-08-27T05:00:46;94057.72;;;17.44;100.00
28131;BME280;15418;42.634;23.374;2022-08-27T05:03:13;94056.53;;;17.15;100.00
28131;BME280;15418;42.634;23.374;2022-08-27T05:05:40;94022.13;;;16.97;100.00
28131;BME280;15418;42.634;23.374;2022-08-27T05:08:06;94020.31;;;17.01;100.00
28131;BME280;15418;42.634;23.374;2022-08-27T05:11:01;94051.22;;;17.49;100.00
28131;BME280;15418;42.634;23.374;2022-08-27T05:13:27;94049.97;;;17.76;100.00
28131;BME280;15418;42.634;23.374;2022-08-27T05:16:01;94019.34;;;17.74;100.00
28131;BME280;15418;42.634;23.374;2022-08-27T05:18:27;94065.16;;;18.25;100.00
28131;BME280;15418;42.634;23.374;2022-08-27T05:20:53;94030.56;;;18.11;100.00
28131;BME280;15418;42.634;23.374;2022-08-27T05:23:19;94036.13;;;18.24;100.00
28131;BME280;15418;42.634;23.374;2022-08-27T05:25:48;94007.09;;;18.02;100.00
28131;BME280;15418;42.634;23.374;2022-08-27T05:28:15;94010.19;;;18.00;100.00
28131;BME280;15418;42.634;23.374;2022-08-27T05:30:43;94013.84;;;18.04;100.00
28131;BME280;15418;42.634;23.374;2022-08-27T05:33:11;93983.59;;;17.92;100.00
28131;BME280;15418;42.634;23.374;2022-08-27T05:35:45;94038.00;;;18.32;100.00
28131;BME280;15418;42.634;23.374;2022-08-27T05:38:11;93993.59;;;17.96;100.00
28131;BME280;15418;42.634;23.374;2022-08-27T05:40:38;94048.22;;;18.23;100.00
28131;BME280;15418;42.634;23.374;2022-08-27T05:43:05;93997.16;;;17.88;100.00
28131;BME280;15418;42.634;23.374;2022-08-27T05:45:32;94024.09;;;18.16;100.00
28131;BME280;15418;42.634;23.374;2022-08-27T05:47:58;94071.31;;;18.64;100.00
28131;BME280;15418;42.634;23.374;2022-08-27T05:50:24;94069.97;;;18.49;100.00
28131;BME280;15418;42.634;23.374;2022-08-27T05:52:50;94074.38;;;18.41;100.00
28131;BME280;15418;42.634;23.374;2022-08-27T05:55:16;94023.97;;;18.12;100.00
28131;BME280;15418;42.634;23.374;2022-08-27T05:57:41;94080.94;;;18.70;100.00
28131;BME280;15418;42.634;23.374;2022-08-27T06:00:07;94072.34;;;18.93;100.00
28131;BME280;15418;42.634;23.374;2022-08-27T06:02:52;94034.72;;;18.93;100.00
28131;BME280;15418;42.634;23.374;2022-08-27T06:05:18;94072.25;;;19.35;100.00
28131;BME280;15418;42.634;23.374;2022-08-27T06:07:44;94033.28;;;19.21;100.00
28131;BME280;15418;42.634;23.374;2022-08-27T06:10:10;94058.84;;;19.58;100.00
28131;BME280;15418;42.634;23.374;2022-08-27T06:12:35;94063.44;;;19.67;100.00
28131;BME280;15418;42.634;23.374;2022-08-27T06:15:01;94056.78;;;19.68;100.00
28131;BME280;15418;42.634;23.374;2022-08-27T06:17:27;94041.78;;;19.65;100.00
28131;BME280;15418;42.634;23.374;2022-08-27T06:19:53;94060.47;;;19.84;100.00
28131;BME280;15418;42.634;23.374;2022-08-27T06:22:18;94041.31;;;19.75;100.00
28131;BME280;15418;42.634;23.374;2022-08-27T06:24:44;94010.63;;;19.49;100.00
28131;BME280;15418;42.634;23.374;2022-08-27T06:27:12;94039.38;;;19.76;100.00
28131;BME280;15418;42.634;23.374;2022-08-27T06:29:39;94040.56;;;19.87;100.00
28131;BME280;15418;42.634;23.374;2022-08-27T06:32:04;94001.22;;;19.74;100.00
28131;BME280;15418;42.634;23.374;2022-08-27T06:34:30;94060.06;;;20.35;100.00
28131;BME280;15418;42.634;23.374;2022-08-27T06:36:56;94033.91;;;20.41;100.00
28131;BME280;15418;42.634;23.374;2022-08-27T06:39:21;94003.38;;;20.47;100.00
28131;BME280;15418;42.634;23.374;2022-08-27T06:41:47;94040.53;;;21.42;100.00
28131;BME280;15418;42.634;23.374;2022-08-27T06:44:14;94056.59;;;23.14;99.55
28131;BME280;15418;42.634;23.374;2022-08-27T06:46:40;94029.72;;;24.34;89.68
28131;BME280;15418;42.634;23.374;2022-08-27T06:49:06;94010.91;;;25.12;81.62
28131;BME280;15418;42.634;23.374;2022-08-27T06:51:34;94057.22;;;25.90;74.66
28131;BME280;15418;42.634;23.374;2022-08-27T06:54:02;94050.03;;;26.34;71.61
28131;BME280;15418;42.634;23.374;2022-08-27T06:56:28;94018.94;;;26.88;69.69
28131;BME280;15418;42.634;23.374;2022-08-27T06:58:57;94060.88;;;27.60;63.85
28131;BME280;15418;42.634;23.374;2022-08-27T07:01:30;94052.59;;;28.07;60.07
28131;BME280;15418;42.634;23.374;2022-08-27T07:04:02;94036.25;;;27.98;58.15
28131;BME280;15418;42.634;23.374;2022-08-27T07:06:29;94024.31;;;28.37;56.86
28131;BME280;15418;42.634;23.374;2022-08-27T07:08:56;94012.38;;;28.22;57.62
28131;BME280;15418;42.634;23.374;2022-08-27T07:11:22;94060.72;;;29.08;55.27
28131;BME280;15418;42.634;23.374;2022-08-27T07:13:48;94002.75;;;28.70;55.66
28131;BME280;15418;42.634;23.374;2022-08-27T07:16:20;94006.53;;;29.13;54.68
28131;BME280;15418;42.634;23.374;2022-08-27T07:18:48;94020.56;;;29.69;51.40
28131;BME280;15418;42.634;23.374;2022-08-27T07:21:17;94031.78;;;29.58;50.14
28131;BME280;15418;42.634;23.374;2022-08-27T07:23:44;94015.75;;;29.02;54.01
28131;BME280;15418;42.634;23.374;2022-08-27T07:26:13;94035.03;;;28.35;59.79
28131;BME280;15418;42.634;23.374;2022-08-27T07:28:40;94049.66;;;28.90;59.24
28131;BME280;15418;42.634;23.374;2022-08-27T07:31:07;94052.63;;;29.43;58.46
28131;BME280;15418;42.634;23.374;2022-08-27T07:33:34;94047.34;;;30.61;48.91
28131;BME280;15418;42.634;23.374;2022-08-27T07:36:00;94017.97;;;30.80;46.28
28131;BME280;15418;42.634;23.374;2022-08-27T07:38:26;94039.31;;;31.32;46.07
28131;BME280;15418;42.634;23.374;2022-08-27T07:40:52;94041.34;;;30.62;48.44
28131;BME280;15418;42.634;23.374;2022-08-27T07:43:18;94030.66;;;28.34;59.38
28131;BME280;15418;42.634;23.374;2022-08-27T07:46:05;94016.97;;;28.98;57.41
28131;BME280;15418;42.634;23.374;2022-08-27T07:48:31;94067.28;;;28.51;59.11
28131;BME280;15418;42.634;23.374;2022-08-27T07:50:59;94020.69;;;28.44;59.29
28131;BME280;15418;42.634;23.374;2022-08-27T07:53:27;94026.09;;;30.67;48.76
28131;BME280;15418;42.634;23.374;2022-08-27T07:56:00;93996.66;;;31.24;43.81
28131;BME280;15418;42.634;23.374;2022-08-27T07:58:26;94065.88;;;32.06;43.37
28131;BME280;15418;42.634;23.374;2022-08-27T08:00:54;94041.56;;;32.27;41.21
28131;BME280;15418;42.634;23.374;2022-08-27T08:03:20;94046.25;;;32.33;41.56
28131;BME280;15418;42.634;23.374;2022-08-27T08:05:45;94048.16;;;32.60;40.46
28131;BME280;15418;42.634;23.374;2022-08-27T08:08:12;94058.53;;;32.63;40.63
28131;BME280;15418;42.634;23.374;2022-08-27T08:10:38;94047.97;;;32.71;39.49
28131;BME280;15418;42.634;23.374;2022-08-27T08:13:05;94031.59;;;31.98;40.09
28131;BME280;15418;42.634;23.374;2022-08-27T08:15:31;94033.38;;;32.36;40.86
28131;BME280;15418;42.634;23.374;2022-08-27T08:17:57;94039.28;;;30.25;44.75
28131;BME280;15418;42.634;23.374;2022-08-27T08:20:22;94049.53;;;32.28;43.14
28131;BME280;15418;42.634;23.374;2022-08-27T08:22:48;94053.94;;;32.73;41.00
28131;BME280;15418;42.634;23.374;2022-08-27T08:25:14;94046.94;;;32.85;39.69
28131;BME280;15418;42.634;23.374;2022-08-27T08:27:43;94024.41;;;31.11;42.59
28131;BME280;15418;42.634;23.374;2022-08-27T08:30:10;94020.78;;;32.24;37.23
28131;BME280;15418;42.634;23.374;2022-08-27T08:32:36;94049.91;;;32.98;37.09
28131;BME280;15418;42.634;23.374;2022-08-27T08:35:03;94035.00;;;33.41;37.26
28131;BME280;15418;42.634;23.374;2022-08-27T08:37:29;94004.38;;;33.27;35.83
28131;BME280;15418;42.634;23.374;2022-08-27T08:39:55;94049.31;;;33.83;35.52
28131;BME280;15418;42.634;23.374;2022-08-27T08:42:42;94050.34;;;33.73;36.05
28131;BME280;15418;42.634;23.374;2022-08-27T08:45:13;94044.06;;;33.86;35.22
28131;BME280;15418;42.634;23.374;2022-08-27T08:47:42;94051.03;;;33.77;36.59
28131;BME280;15418;42.634;23.374;2022-08-27T08:50:13;94052.31;;;33.93;35.10
28131;BME280;15418;42.634;23.374;2022-08-27T08:52:57;94050.47;;;34.19;34.08
28131;BME280;15418;42.634;23.374;2022-08-27T09:00:31;94042.00;;;34.69;33.84
28131;BME280;15418;42.634;23.374;2022-08-27T09:02:56;94027.09;;;34.85;33.24
28131;BME280;15418;42.634;23.374;2022-08-27T09:05:22;94000.81;;;34.45;34.01
28131;BME280;15418;42.634;23.374;2022-08-27T09:08:12;94036.69;;;34.41;34.05
28131;BME280;15418;42.634;23.374;2022-08-27T09:13:31;94023.53;;;34.38;35.49
28131;BME280;15418;42.634;23.374;2022-08-27T09:16:02;94015.78;;;33.93;33.02
28131;BME280;15418;42.634;23.374;2022-08-27T09:18:27;94009.56;;;34.02;33.41
28131;BME280;15418;42.634;23.374;2022-08-27T09:20:59;94021.56;;;33.86;33.46
28131;BME280;15418;42.634;23.374;2022-08-27T09:26:28;94037.88;;;32.77;34.69
28131;BME280;15418;42.634;23.374;2022-08-27T09:29:05;94023.75;;;33.41;33.51
28131;BME280;15418;42.634;23.374;2022-08-27T09:31:57;94007.56;;;33.29;34.78
28131;BME280;15418;42.634;23.374;2022-08-27T09:34:26;94029.09;;;32.75;35.49
28131;BME280;15418;42.634;23.374;2022-08-27T09:37:05;94033.81;;;33.18;34.75
28131;BME280;15418;42.634;23.374;2022-08-27T09:39:32;94034.69;;;32.75;35.98
28131;BME280;15418;42.634;23.374;2022-08-27T09:41:58;94009.03;;;33.54;33.80
28131;BME280;15418;42.634;23.374;2022-08-27T09:44:23;94032.66;;;34.09;34.74
28131;BME280;15418;42.634;23.374;2022-08-27T09:46:57;94026.06;;;33.46;33.95
28131;BME280;15418;42.634;23.374;2022-08-27T09:49:23;94035.53;;;31.46;35.82
28131;BME280;15418;42.634;23.374;2022-08-27T09:51:49;93996.81;;;30.41;36.27
28131;BME280;15418;42.634;23.374;2022-08-27T09:54:41;94029.59;;;30.37;37.35
28131;BME280;15418;42.634;23.374;2022-08-27T09:57:09;94001.00;;;30.18;37.94
28131;BME280;15418;42.634;23.374;2022-08-27T09:59:39;94015.19;;;30.38;38.06
28131;BME280;15418;42.634;23.374;2022-08-27T10:04:44;93996.03;;;30.40;37.17
28131;BME280;15418;42.634;23.374;2022-08-27T10:07:40;94028.75;;;29.34;38.71
28131;BME280;15418;42.634;23.374;2022-08-27T10:12:55;94015.75;;;29.02;40.95
28131;BME280;15418;42.634;23.374;2022-08-27T10:15:27;94020.63;;;29.58;40.12
28131;BME280;15418;42.634;23.374;2022-08-27T10:18:25;94021.41;;;29.59;40.01
28131;BME280;15418;42.634;23.374;2022-08-27T10:21:03;94019.69;;;29.76;38.52
28131;BME280;15418;42.634;23.374;2022-08-27T10:26:11;93969.91;;;29.03;37.92
28131;BME280;15418;42.634;23.374;2022-08-27T10:31:43;93972.25;;;29.12;38.26
28131;BME280;15418;42.634;23.374;2022-08-27T10:34:39;94015.72;;;29.10;36.65
28131;BME280;15418;42.634;23.374;2022-08-27T10:48:21;94007.06;;;29.60;35.94
28131;BME280;15418;42.634;23.374;2022-08-27T10:50:56;93967.38;;;29.34;35.35
28131;BME280;15418;42.634;23.374;2022-08-27T11:04:21;94009.50;;;29.51;36.43
28131;BME280;15418;42.634;23.374;2022-08-27T11:07:02;94019.78;;;29.61;35.61
28131;BME280;15418;42.634;23.374;2022-08-27T11:11:57;93966.69;;;29.09;37.75
28131;BME280;15418;42.634;23.374;2022-08-27T11:14:47;93959.88;;;29.13;36.34
28131;BME280;15418;42.634;23.374;2022-08-27T11:17:34;93986.84;;;29.42;36.30
28131;BME280;15418;42.634;23.374;2022-08-27T11:20:21;94001.00;;;29.73;35.70
28131;BME280;15418;42.634;23.374;2022-08-27T11:22:54;94001.78;;;29.69;36.80
28131;BME280;15418;42.634;23.374;2022-08-27T11:25:26;94001.31;;;29.78;35.46
28131;BME280;15418;42.634;23.374;2022-08-27T11:27:56;93925.81;;;29.44;35.30
28131;BME280;15418;42.634;23.374;2022-08-27T11:33:37;93989.22;;;29.47;34.00
28131;BME280;15418;42.634;23.374;2022-08-27T11:36:31;93938.63;;;29.38;33.62
28131;BME280;15418;42.634;23.374;2022-08-27T11:39:12;93945.66;;;29.60;33.02
28131;BME280;15418;42.634;23.374;2022-08-27T11:44:23;93962.03;;;30.04;33.10
28131;BME280;15418;42.634;23.374;2022-08-27T11:46:55;93977.63;;;30.43;35.97
28131;BME280;15418;42.634;23.374;2022-08-27T11:52:07;93957.59;;;30.48;32.12
28131;BME280;15418;42.634;23.374;2022-08-27T11:54:48;93955.69;;;30.38;34.66
28131;BME280;15418;42.634;23.374;2022-08-27T11:57:48;93933.06;;;30.28;33.61
28131;BME280;15418;42.634;23.374;2022-08-27T12:00:31;93978.97;;;30.66;32.47
28131;BME280;15418;42.634;23.374;2022-08-27T12:06:25;93968.09;;;30.75;32.26
28131;BME280;15418;42.634;23.374;2022-08-27T12:08:34;93935.84;;;30.67;33.60
28131;BME280;15418;42.634;23.374;2022-08-27T12:19:01;93954.75;;;30.86;31.17
28131;BME280;15418;42.634;23.374;2022-08-27T12:26:56;93942.94;;;30.75;31.45
28131;BME280;15418;42.634;23.374;2022-08-27T12:29:33;93948.69;;;30.60;32.14
28131;BME280;15418;42.634;23.374;2022-08-27T12:34:45;93913.03;;;30.33;30.65
28131;BME280;15418;42.634;23.374;2022-08-27T12:37:12;93917.91;;;30.26;32.28
28131;BME280;15418;42.634;23.374;2022-08-27T12:39:40;93910.50;;;30.46;32.76
28131;BME280;15418;42.634;23.374;2022-08-27T12:42:16;93901.66;;;30.52;32.03
28131;BME280;15418;42.634;23.374;2022-08-27T12:44:43;93898.09;;;30.13;33.02
28131;BME280;15418;42.634;23.374;2022-08-27T12:47:10;93905.53;;;30.61;32.58
28131;BME280;15418;42.634;23.374;2022-08-27T12:49:50;93946.84;;;30.81;34.89
28131;BME280;15418;42.634;23.374;2022-08-27T12:58:01;93932.00;;;30.84;32.55
28131;BME280;15418;42.634;23.374;2022-08-27T13:00:58;93940.13;;;31.06;32.60
28131;BME280;15418;42.634;23.374;2022-08-27T13:05:51;93889.19;;;30.91;31.57
28131;BME280;15418;42.634;23.374;2022-08-27T13:08:27;93931.66;;;31.13;31.92
28131;BME280;15418;42.634;23.374;2022-08-27T13:10:54;93937.44;;;31.26;31.17
28131;BME280;15418;42.634;23.374;2022-08-27T13:13:23;93929.31;;;31.35;30.96
28131;BME280;15418;42.634;23.374;2022-08-27T13:15:55;93934.97;;;31.32;30.10
28131;BME280;15418;42.634;23.374;2022-08-27T13:18:23;93934.00;;;31.42;31.21
28131;BME280;15418;42.634;23.374;2022-08-27T13:20:51;93930.28;;;31.49;32.08
28131;BME280;15418;42.634;23.374;2022-08-27T13:23:24;93919.28;;;31.38;31.54
28131;BME280;15418;42.634;23.374;2022-08-27T13:26:05;93906.22;;;31.27;32.50
28131;BME280;15418;42.634;23.374;2022-08-27T13:28:32;93905.88;;;30.94;32.18
28131;BME280;15418;42.634;23.374;2022-08-27T13:30:58;93921.81;;;31.28;31.63
28131;BME280;15418;42.634;23.374;2022-08-27T13:33:28;93926.66;;;31.52;31.23
28131;BME280;15418;42.634;23.374;2022-08-27T13:35:55;93920.75;;;31.46;31.67
28131;BME280;15418;42.634;23.374;2022-08-27T13:38:28;93895.81;;;31.01;31.30
28131;BME280;15418;42.634;23.374;2022-08-27T13:40:57;93918.84;;;31.39;30.70
28131;BME280;15418;42.634;23.374;2022-08-27T13:43:37;93896.38;;;31.19;31.72
28131;BME280;15418;42.634;23.374;2022-08-27T13:46:08;93922.25;;;31.27;32.95
28131;BME280;15418;42.634;23.374;2022-08-27T13:48:35;93914.44;;;31.15;32.57
28131;BME280;15418;42.634;23.374;2022-08-27T13:51:04;93845.09;;;30.40;32.08
28131;BME280;15418;42.634;23.374;2022-08-27T13:53:33;93886.56;;;30.76;30.94
28131;BME280;15418;42.634;23.374;2022-08-27T13:56:36;93911.16;;;30.89;31.40
28131;BME280;15418;42.634;23.374;2022-08-27T13:59:24;93856.00;;;30.62;31.65
28131;BME280;15418;42.634;23.374;2022-08-27T14:09:46;93893.38;;;30.41;32.71
28131;BME280;15418;42.634;23.374;2022-08-27T14:12:27;93875.50;;;30.35;32.58
28131;BME280;15418;42.634;23.374;2022-08-27T14:14:55;93877.16;;;29.94;32.46
28131;BME280;15418;42.634;23.374;2022-08-27T14:17:34;93891.69;;;30.51;32.77
28131;BME280;15418;42.634;23.374;2022-08-27T14:20:03;93871.88;;;30.34;32.05
28131;BME280;15418;42.634;23.374;2022-08-27T14:22:29;93905.25;;;30.83;31.94
28131;BME280;15418;42.634;23.374;2022-08-27T14:24:55;93906.56;;;30.75;32.22
28131;BME280;15418;42.634;23.374;2022-08-27T14:27:20;93928.59;;;30.69;32.52
28131;BME280;15418;42.634;23.374;2022-08-27T14:29:46;93924.56;;;30.74;32.77